createdAt,value
2022-08-17T00:02:25.887Z,99.90
2022-08-17T00:04:55.348Z,99.90
2022-08-17T00:07:23.595Z,99.90
2022-08-17T00:09:51.040Z,99.90
2022-08-17T00:12:43.339Z,99.90
2022-08-17T00:15:13.071Z,99.90
2022-08-17T00:17:46.316Z,99.90
2022-08-17T00:20:14.421Z,99.90
2022-08-17T00:22:43.550Z,99.90
2022-08-17T00:25:16.797Z,99.90
2022-08-17T00:27:46.980Z,99.90
2022-08-17T00:30:14.970Z,99.90
2022-08-17T00:33:11.932Z,99.90
2022-08-17T00:35:35.067Z,99.90
2022-08-17T00:38:10.006Z,99.90
2022-08-17T00:40:44.942Z,99.90
2022-08-17T00:43:20.468Z,99.90
2022-08-17T00:45:53.013Z,99.90
2022-08-17T00:48:30.146Z,99.90
2022-08-17T00:51:11.895Z,99.90
2022-08-17T00:53:44.513Z,99.90
2022-08-17T00:56:21.230Z,99.90
2022-08-17T00:58:54.629Z,99.90
2022-08-17T01:01:23.816Z,99.90
2022-08-17T01:03:57.044Z,99.90
2022-08-17T01:06:28.436Z,99.90
2022-08-17T01:08:58.010Z,99.90
2022-08-17T01:11:28.842Z,99.90
2022-08-17T01:13:56.284Z,99.90
2022-08-17T01:16:30.613Z,99.90
2022-08-17T01:19:04.949Z,99.90
2022-08-17T01:22:08.519Z,99.90
2022-08-17T01:24:37.381Z,99.90
2022-08-17T01:27:10.718Z,99.90
2022-08-17T01:29:41.169Z,99.90
2022-08-17T01:32:09.132Z,99.90
2022-08-17T01:34:43.679Z,99.90
2022-08-17T01:37:19.052Z,99.90
2022-08-17T01:39:52.482Z,99.90
2022-08-17T01:42:38.705Z,99.90
2022-08-17T01:45:17.769Z,99.90
2022-08-17T01:47:50.791Z,99.90
2022-08-17T01:50:22.805Z,99.90
2022-08-17T01:52:54.384Z,99.90
2022-08-17T01:55:27.515Z,99.90
2022-08-17T01:57:55.362Z,99.90
2022-08-17T02:00:22.978Z,99.90
2022-08-17T02:02:51.456Z,99.90
2022-08-17T02:05:22.550Z,99.90
2022-08-17T02:07:59.675Z,99.90
2022-08-17T02:10:34.180Z,99.90
2022-08-17T02:13:03.935Z,99.90
2022-08-17T02:15:32.277Z,99.90
2022-08-17T02:18:05.759Z,99.90
2022-08-17T02:20:42.206Z,99.90
2022-08-17T02:23:12.985Z,99.90
2022-08-17T02:25:43.521Z,99.90
2022-08-17T02:28:11.506Z,99.90
2022-08-17T02:31:01.256Z,99.90
2022-08-17T02:33:42.847Z,99.90
2022-08-17T02:36:18.989Z,99.90
2022-08-17T02:38:50.014Z,99.90
2022-08-17T02:41:17.392Z,99.90
2022-08-17T02:43:45.533Z,99.90
2022-08-17T02:46:13.017Z,99.90
2022-08-17T02:48:42.447Z,99.90
2022-08-17T02:51:09.845Z,99.90
2022-08-17T02:53:37.145Z,99.90
2022-08-17T02:56:09.718Z,99.90
2022-08-17T02:58:40.700Z,99.90
2022-08-17T03:01:13.773Z,99.90
2022-08-17T03:03:45.505Z,99.90
2022-08-17T03:06:12.797Z,99.90
2022-08-17T03:08:43.452Z,99.90
2022-08-17T03:11:10.849Z,99.90
2022-08-17T03:13:38.184Z,99.90
2022-08-17T03:16:14.581Z,99.90
2022-08-17T03:18:44.502Z,99.90
2022-08-17T03:21:11.994Z,99.90
2022-08-17T03:23:41.317Z,99.90
2022-08-17T03:26:15.402Z,99.90
2022-08-17T03:28:43.801Z,99.90
2022-08-17T03:31:14.850Z,99.90
2022-08-17T03:33:42.715Z,99.90
2022-08-17T03:36:10.517Z,99.90
2022-08-17T03:38:41.200Z,99.90
2022-08-17T03:41:11.830Z,99.90
2022-08-17T03:43:42.302Z,99.90
2022-08-17T03:46:35.138Z,99.90
2022-08-17T03:49:25.638Z,99.90
2022-08-17T03:52:13.375Z,99.90
2022-08-17T03:55:01.326Z,99.90
2022-08-17T03:57:29.668Z,99.90
2022-08-17T03:59:57.196Z,99.90
2022-08-17T04:02:32.198Z,99.90
2022-08-17T04:05:02.809Z,99.90
2022-08-17T04:07:31.935Z,99.90
2022-08-17T04:10:00.540Z,99.90
2022-08-17T04:12:32.125Z,99.90
2022-08-17T04:15:09.754Z,99.90
2022-08-17T04:17:41.118Z,99.90
2022-08-17T04:20:08.655Z,99.90
2022-08-17T04:22:36.933Z,99.90
2022-08-17T04:25:17.413Z,99.90
2022-08-17T04:27:48.960Z,99.90
2022-08-17T04:30:16.452Z,99.90
2022-08-17T04:33:05.965Z,99.90
2022-08-17T04:35:52.554Z,99.90
2022-08-17T04:38:22.626Z,99.90
2022-08-17T04:41:12.355Z,99.90
2022-08-17T04:43:41.777Z,99.90
2022-08-17T04:46:19.096Z,99.90
2022-08-17T04:48:49.499Z,99.90
2022-08-17T04:51:32.613Z,99.90
2022-08-17T04:54:06.274Z,99.90
2022-08-17T04:56:34.664Z,99.90
2022-08-17T04:59:05.226Z,99.90
2022-08-17T05:01:34.674Z,99.90
2022-08-17T05:04:20.875Z,99.90
2022-08-17T05:06:55.504Z,99.90
2022-08-17T05:09:28.806Z,99.90
2022-08-17T05:12:02.205Z,99.90
2022-08-17T05:14:33.062Z,99.90
2022-08-17T05:17:04.144Z,99.90
2022-08-17T05:19:40.129Z,99.90
2022-08-17T05:22:07.495Z,99.90
2022-08-17T05:24:42.716Z,99.90
2022-08-17T05:27:21.592Z,99.90
2022-08-17T05:29:57.327Z,99.90
2022-08-17T05:32:38.185Z,99.90
2022-08-17T05:35:09.653Z,99.90
2022-08-17T05:37:36.956Z,99.90
2022-08-17T05:40:04.849Z,99.90
2022-08-17T05:42:37.035Z,99.90
2022-08-17T05:45:05.298Z,99.90
2022-08-17T05:47:32.525Z,99.90
2022-08-17T05:50:01.450Z,99.90
2022-08-17T05:52:35.071Z,99.90
2022-08-17T05:55:21.174Z,99.90
2022-08-17T05:58:09.917Z,99.90
2022-08-17T06:01:07.847Z,99.90
2022-08-17T06:03:56.764Z,99.90
2022-08-17T06:06:32.270Z,99.90
2022-08-17T06:09:25.753Z,99.90
2022-08-17T06:12:23.498Z,99.90
2022-08-17T06:15:02.966Z,99.90
2022-08-17T06:17:31.415Z,99.90
2022-08-17T06:20:04.402Z,99.90
2022-08-17T06:22:43.059Z,99.90
2022-08-17T06:25:18.991Z,99.90
2022-08-17T06:27:59.452Z,99.90
2022-08-17T06:30:59.610Z,99.90
2022-08-17T06:33:29.804Z,99.90
2022-08-17T06:36:25.536Z,99.90
2022-08-17T06:39:33.069Z,99.90
2022-08-17T06:43:04.105Z,99.90
2022-08-17T06:45:59.139Z,99.90
2022-08-17T06:48:41.090Z,99.90
2022-08-17T06:51:23.672Z,99.90
2022-08-17T06:54:20.309Z,99.90
2022-08-17T06:57:25.453Z,99.90
2022-08-17T07:00:05.146Z,99.90
2022-08-17T07:02:55.776Z,99.90
2022-08-17T07:05:51.861Z,99.90
2022-08-17T07:08:40.206Z,99.90
2022-08-17T07:11:18.859Z,99.90
2022-08-17T07:13:54.498Z,99.90
2022-08-17T07:16:46.576Z,99.90
2022-08-17T07:19:17.363Z,99.90
2022-08-17T07:22:20.289Z,99.90
2022-08-17T07:25:09.436Z,99.90
2022-08-17T07:27:45.596Z,99.90
2022-08-17T07:30:26.347Z,99.90
2022-08-17T08:02:17.761Z,98.70
2022-08-17T08:05:30.696Z,99.10
2022-08-17T08:08:29.200Z,98.90
2022-08-17T08:11:10.001Z,99.00
2022-08-17T08:13:45.259Z,98.70
2022-08-17T08:16:27.592Z,98.40
2022-08-17T08:19:02.168Z,98.40
2022-08-17T08:21:48.522Z,98.20
2022-08-17T08:24:36.861Z,98.10
2022-08-17T08:27:48.972Z,98.10
2022-08-17T08:30:21.671Z,98.00
2022-08-17T08:33:38.676Z,98.20
2022-08-17T08:37:15.892Z,98.20
2022-08-17T08:39:26.193Z,98.20
2022-08-17T08:42:08.713Z,98.30
2022-08-17T08:45:10.361Z,98.40
2022-08-17T08:47:55.943Z,98.30
2022-08-17T08:50:54.633Z,98.40
2022-08-17T08:53:44.748Z,98.30
2022-08-17T08:56:36.813Z,98.40
2022-08-17T08:59:23.683Z,98.30
2022-08-17T09:02:25.611Z,98.60
2022-08-17T09:05:18.066Z,97.90
2022-08-17T09:08:03.194Z,96.90
2022-08-17T09:10:52.160Z,96.50
2022-08-17T09:13:55.504Z,96.50
2022-08-17T09:16:41.698Z,96.60
2022-08-17T09:19:23.598Z,95.80
2022-08-17T09:22:17.590Z,96.10
2022-08-17T09:25:05.312Z,95.90
2022-08-17T09:27:46.607Z,95.80
2022-08-17T09:30:18.141Z,95.60
2022-08-17T09:32:50.308Z,96.10
2022-08-17T09:35:25.279Z,95.80
2022-08-17T09:38:32.323Z,95.70
2022-08-17T09:41:28.370Z,94.90
2022-08-17T09:44:22.943Z,94.80
2022-08-17T09:47:34.537Z,94.30
2022-08-17T09:50:13.586Z,93.90
2022-08-17T09:52:43.343Z,93.80
2022-08-17T09:55:13.891Z,93.90
2022-08-17T09:58:28.986Z,93.60
2022-08-17T10:01:40.120Z,93.50
2022-08-17T10:04:32.448Z,93.80
2022-08-17T10:07:10.714Z,94.10
2022-08-17T10:09:49.113Z,93.80
2022-08-17T10:12:30.444Z,93.70
2022-08-17T10:15:22.874Z,94.10
2022-08-17T10:18:07.656Z,93.80
2022-08-17T10:20:45.525Z,94.10
2022-08-17T10:47:19.215Z,92.20
2022-08-17T10:49:54.174Z,92.70
2022-08-17T10:52:26.510Z,93.10
2022-08-17T10:54:58.712Z,93.30
2022-08-17T11:05:27.711Z,92.50
2022-08-17T11:08:43.558Z,92.80
2022-08-17T11:11:51.117Z,92.70
2022-08-17T11:14:55.650Z,92.50
2022-08-17T11:17:41.780Z,92.70
2022-08-17T11:20:32.805Z,93.10
2022-08-17T11:23:42.314Z,92.80
2022-08-17T11:26:41.111Z,92.80
2022-08-17T11:29:24.927Z,93.00
2022-08-17T11:32:15.130Z,92.90
2022-08-17T12:17:40.863Z,90.30
2022-08-17T12:20:21.981Z,90.80
2022-08-17T12:23:20.673Z,91.10
2022-08-17T12:26:14.418Z,91.50
2022-08-17T12:28:47.587Z,91.90
2022-08-17T12:31:31.186Z,92.20
2022-08-17T12:34:00.576Z,92.50
2022-08-17T12:36:29.049Z,92.60
2022-08-17T12:39:12.235Z,92.90
2022-08-17T12:41:52.473Z,92.70
2022-08-17T12:44:32.758Z,92.90
2022-08-17T12:47:07.166Z,92.70
2022-08-17T12:49:37.212Z,92.50
2022-08-17T12:52:26.894Z,92.80
2022-08-17T12:55:07.442Z,92.60
2022-08-17T12:57:47.390Z,92.20
2022-08-17T13:00:25.590Z,92.10
2022-08-17T13:02:59.252Z,91.90
2022-08-17T13:05:28.273Z,92.00
2022-08-17T13:07:57.992Z,92.10
2022-08-17T13:10:33.390Z,92.20
2022-08-17T13:31:28.587Z,91.00
2022-08-17T13:34:16.104Z,91.40
2022-08-17T13:36:46.995Z,91.80
2022-08-17T13:39:25.279Z,91.80
2022-08-17T13:41:56.354Z,91.80
2022-08-17T13:44:39.780Z,91.70
2022-08-17T13:47:18.124Z,92.20
2022-08-17T13:49:49.090Z,92.50
2022-08-17T13:52:40.052Z,92.60
2022-08-17T13:55:19.831Z,92.50
2022-08-17T13:58:06.821Z,92.40
2022-08-17T14:00:36.607Z,92.00
2022-08-17T14:03:05.476Z,92.20
2022-08-17T14:05:34.022Z,92.00
2022-08-17T14:08:06.805Z,91.90
2022-08-17T14:10:36.735Z,91.70
2022-08-17T14:13:09.350Z,91.80
2022-08-17T14:15:55.024Z,91.90
2022-08-17T14:18:31.152Z,91.80
2022-08-17T14:21:12.069Z,91.70
2022-08-17T14:23:39.584Z,91.60
2022-08-17T14:26:06.933Z,91.60
2022-08-17T14:28:36.526Z,91.50
2022-08-17T14:31:05.383Z,91.40
2022-08-17T14:33:33.870Z,91.70
2022-08-17T14:36:01.373Z,92.40
2022-08-17T14:38:29.016Z,92.10
2022-08-17T14:41:00.422Z,92.40
2022-08-17T14:43:27.731Z,92.30
2022-08-17T14:46:00.174Z,92.00
2022-08-17T14:48:29.104Z,92.10
2022-08-17T14:50:59.784Z,92.30
2022-08-17T14:53:27.277Z,92.60
2022-08-17T14:55:55.592Z,92.70
2022-08-17T14:58:23.891Z,92.30
2022-08-17T15:00:52.686Z,92.00
2022-08-17T15:03:23.854Z,92.00
2022-08-17T15:05:54.166Z,92.10
2022-08-17T15:08:21.613Z,92.00
2022-08-17T15:10:54.538Z,92.00
2022-08-17T15:13:26.007Z,92.00
2022-08-17T15:15:54.008Z,91.90
2022-08-17T15:18:21.607Z,92.10
2022-08-17T15:20:53.298Z,92.50
2022-08-17T15:23:26.670Z,92.70
2022-08-17T15:25:55.086Z,92.80
2022-08-17T15:28:23.161Z,92.50
2022-08-17T15:30:55.134Z,92.60
2022-08-17T15:33:30.405Z,92.60
2022-08-17T15:36:03.784Z,92.60
2022-08-17T15:38:34.426Z,92.70
2022-08-17T15:41:07.531Z,92.50
2022-08-17T15:43:36.107Z,92.80
2022-08-17T15:46:15.222Z,92.90
2022-08-17T15:48:51.214Z,92.80
2022-08-17T15:51:26.101Z,93.00
2022-08-17T15:54:04.481Z,93.10
2022-08-17T15:56:50.232Z,93.40
2022-08-17T15:59:24.913Z,93.10
2022-08-17T16:02:29.914Z,93.40
2022-08-17T16:04:44.510Z,93.20
2022-08-17T16:07:17.506Z,92.80
2022-08-17T16:09:45.708Z,93.10
2022-08-17T16:12:19.216Z,93.40
2022-08-17T16:14:49.200Z,93.30
2022-08-17T16:17:39.777Z,93.20
2022-08-17T16:20:06.939Z,93.30
2022-08-17T16:22:41.579Z,93.30
2022-08-17T16:25:12.743Z,93.30
2022-08-17T16:27:43.910Z,93.50
2022-08-17T16:30:17.948Z,93.50
2022-08-17T16:32:51.881Z,93.60
2022-08-17T16:35:22.864Z,93.40
2022-08-17T16:37:57.352Z,93.50
2022-08-17T16:40:27.598Z,93.40
2022-08-17T16:42:55.939Z,93.60
2022-08-17T16:45:28.328Z,93.80
2022-08-17T16:47:59.250Z,94.00
2022-08-17T16:50:30.456Z,94.20
2022-08-17T16:53:10.911Z,94.20
2022-08-17T16:55:43.004Z,94.30
2022-08-17T16:58:10.418Z,94.40
2022-08-17T17:00:38.610Z,94.50
2022-08-17T17:03:19.955Z,94.70
2022-08-17T17:06:13.831Z,94.70
2022-08-17T17:08:55.636Z,94.80
2022-08-17T17:11:35.557Z,94.70
2022-08-17T17:14:07.365Z,94.80
2022-08-17T17:16:45.745Z,94.90
2022-08-17T17:19:52.914Z,94.90
2022-08-17T17:22:23.542Z,95.10
2022-08-17T17:25:12.084Z,95.10
2022-08-17T17:27:59.008Z,95.40
2022-08-17T17:30:39.077Z,95.50
2022-08-17T17:33:11.694Z,95.50
2022-08-17T17:35:51.916Z,95.60
2022-08-17T17:38:28.982Z,95.70
2022-08-17T17:41:08.794Z,95.80
2022-08-17T17:43:41.647Z,95.80
2022-08-17T17:46:27.386Z,95.80
2022-08-17T17:48:57.750Z,95.80
2022-08-17T17:52:06.525Z,95.90
2022-08-17T17:54:58.255Z,96.00
2022-08-17T17:57:44.313Z,96.00
2022-08-17T18:00:22.321Z,96.20
2022-08-17T18:03:01.626Z,96.20
2022-08-17T18:05:39.032Z,96.30
2022-08-17T18:08:40.545Z,96.40
2022-08-17T18:11:24.953Z,96.50
2022-08-17T18:14:17.464Z,96.60
2022-08-17T18:16:58.428Z,96.70
2022-08-17T18:19:32.545Z,96.80
2022-08-17T18:22:14.109Z,96.90
2022-08-17T18:24:48.014Z,96.90
2022-08-17T18:27:37.934Z,97.00
2022-08-17T18:30:30.053Z,97.10
2022-08-17T18:33:26.699Z,97.20
2022-08-17T18:36:01.688Z,97.30
2022-08-17T18:38:48.031Z,97.20
2022-08-17T18:41:30.637Z,97.40
2022-08-17T18:44:19.539Z,97.40
2022-08-17T18:47:13.938Z,97.60
2022-08-17T18:49:43.379Z,97.70
2022-08-17T18:52:28.620Z,97.70
2022-08-17T18:55:05.118Z,97.80
2022-08-17T18:57:43.591Z,97.90
2022-08-17T19:00:26.942Z,98.00
2022-08-17T19:03:01.324Z,98.10
2022-08-17T19:05:41.241Z,98.20
2022-08-17T19:08:30.071Z,98.30
2022-08-17T19:11:31.998Z,98.40
2022-08-17T19:14:17.066Z,98.50
2022-08-17T19:17:06.375Z,98.70
2022-08-17T19:19:53.611Z,98.80
2022-08-17T19:22:42.260Z,98.80
2022-08-17T19:25:21.835Z,98.80
2022-08-17T19:27:57.702Z,98.90
2022-08-17T19:30:35.859Z,99.00
2022-08-17T19:33:08.929Z,99.10
2022-08-17T19:35:59.569Z,99.20
2022-08-17T19:38:53.606Z,99.40
2022-08-17T19:41:33.307Z,99.50
2022-08-17T19:44:27.344Z,99.60
2022-08-17T19:47:30.726Z,99.70
2022-08-17T19:50:21.392Z,99.70
2022-08-17T19:53:07.609Z,99.70
2022-08-17T19:56:20.311Z,99.90
2022-08-17T19:59:08.379Z,99.90
2022-08-17T20:01:44.566Z,99.90
2022-08-17T20:04:43.742Z,99.90
2022-08-17T20:07:45.072Z,99.90
2022-08-17T20:10:30.749Z,99.90
2022-08-17T20:13:05.525Z,99.90
2022-08-17T20:15:39.136Z,99.90
2022-08-17T20:18:44.077Z,99.90
2022-08-17T20:21:29.382Z,99.90
2022-08-17T20:24:18.195Z,99.90
2022-08-17T20:27:13.948Z,99.90
2022-08-17T20:30:04.378Z,99.90
2022-08-17T20:32:56.432Z,99.90
2022-08-17T20:35:34.233Z,99.90
2022-08-17T20:38:43.411Z,99.90
2022-08-17T20:41:22.474Z,99.90
2022-08-17T20:43:59.459Z,99.90
2022-08-17T20:47:13.217Z,99.90
2022-08-17T20:49:45.145Z,99.90
2022-08-17T20:52:42.629Z,99.90
2022-08-17T20:55:52.294Z,99.90
2022-08-17T20:58:32.258Z,99.90
2022-08-17T21:01:26.459Z,99.90
2022-08-17T21:04:03.410Z,99.90
2022-08-17T21:06:34.157Z,99.90
2022-08-17T21:09:13.584Z,99.90
2022-08-17T21:12:03.924Z,99.90
2022-08-17T21:14:51.167Z,99.90
2022-08-17T21:17:56.617Z,99.90
2022-08-17T21:21:17.275Z,99.90
2022-08-17T21:24:29.193Z,99.90
2022-08-17T21:27:18.201Z,99.90
2022-08-17T21:30:21.124Z,99.90
2022-08-17T21:33:14.605Z,99.90
2022-08-17T21:36:12.887Z,99.90
2022-08-17T21:38:58.574Z,99.90
2022-08-17T21:41:35.015Z,99.90
2022-08-17T21:44:33.150Z,99.90
2022-08-17T21:47:26.376Z,99.90
2022-08-17T21:49:55.186Z,99.90
2022-08-17T21:52:34.270Z,99.90
2022-08-17T21:55:03.338Z,99.90
2022-08-17T21:57:38.625Z,99.90
2022-08-17T22:00:17.142Z,99.90
2022-08-17T22:03:01.337Z,99.90
2022-08-17T22:05:40.522Z,99.90
2022-08-17T22:08:22.053Z,99.90
2022-08-17T22:10:56.971Z,99.90
2022-08-17T22:13:29.679Z,99.90
2022-08-17T22:16:15.533Z,99.90
2022-08-17T22:19:07.622Z,99.90
2022-08-17T22:21:39.220Z,99.90
2022-08-17T22:24:24.903Z,99.90
2022-08-17T22:27:13.133Z,99.90
2022-08-17T22:30:33.423Z,99.90
2022-08-17T22:33:33.489Z,99.90
2022-08-17T22:36:25.593Z,99.90
2022-08-17T22:39:28.482Z,99.90
2022-08-17T22:42:02.592Z,99.90
2022-08-17T22:44:48.203Z,99.90
2022-08-17T22:47:22.903Z,99.90
2022-08-17T22:49:58.006Z,99.90
2022-08-17T22:53:01.910Z,99.90
2022-08-17T22:55:52.234Z,99.90
2022-08-17T22:58:42.778Z,99.90
2022-08-17T23:01:35.813Z,99.90
2022-08-17T23:04:12.678Z,99.90
2022-08-17T23:06:44.098Z,99.90
2022-08-17T23:09:14.879Z,99.90
2022-08-17T23:11:53.650Z,99.90
2022-08-17T23:14:32.583Z,99.90
2022-08-17T23:17:03.475Z,99.90
2022-08-17T23:19:38.027Z,99.90
2022-08-17T23:22:10.607Z,99.90
2022-08-17T23:24:48.726Z,99.90
2022-08-17T23:27:20.704Z,99.90
2022-08-17T23:29:50.730Z,99.90
2022-08-17T23:32:34.607Z,99.90
2022-08-17T23:35:07.184Z,99.90
2022-08-17T23:37:41.983Z,99.90
2022-08-17T23:40:15.092Z,99.90
2022-08-17T23:42:46.703Z,99.90
2022-08-17T23:45:22.641Z,99.90
2022-08-17T23:47:52.998Z,99.90
2022-08-17T23:50:25.455Z,99.90
2022-08-17T23:53:05.738Z,99.90
2022-08-17T23:55:37.561Z,99.90
2022-08-17T23:58:05.632Z,99.90
